Time,TemperatureF,DewpointF,PressureIn,WindDirection,WindDirectionDegrees,WindSpeedMPH,WindSpeedGustMPH,Humidity,HourlyPrecipIn,Conditions,Clouds,dailyrainin,SoftwareType,DateUTC
2013-05-10 00:02:00,49.3,46.8,30.05,SW,225,2.2,-999.0,91,-99.99,,,0.00,Acu-Link.com,2013-05-10 07:02:00,
2013-05-10 00:17:00,49.1,46.9,30.05,West,270,0.0,-999.0,92,-99.99,,,0.00,Acu-Link.com,2013-05-10 07:17:00,
2013-05-10 00:32:00,49.1,46.9,30.05,SSE,157,1.7,-999.0,92,-99.99,,,0.00,Acu-Link.com,2013-05-10 07:32:00,
2013-05-10 00:47:00,49.1,46.9,30.07,SW,225,1.1,-999.0,92,-99.99,,,0.00,Acu-Link.com,2013-05-10 07:47:00,
2013-05-10 01:03:00,48.9,46.7,30.06,SW,225,2.2,-999.0,92,-99.99,,,0.00,Acu-Link.com,2013-05-10 08:03:00,
2013-05-10 01:18:00,48.7,46.5,30.06,SW,225,3.7,-999.0,92,-99.99,,,0.00,Acu-Link.com,2013-05-10 08:18:00,
2013-05-10 01:33:00,48.7,46.5,30.06,South,180,1.7,-999.0,92,-99.99,,,0.00,Acu-Link.com,2013-05-10 08:33:00,
2013-05-10 01:49:00,48.4,46.2,30.06,SW,225,1.7,-999.0,92,-99.99,,,0.00,Acu-Link.com,2013-05-10 08:49:00,
2013-05-10 02:04:00,48.7,46.8,30.06,SW,225,1.1,-999.0,93,-99.99,,,0.00,Acu-Link.com,2013-05-10 09:04:00,
2013-05-10 02:19:00,49.1,46.9,30.05,SW,225,0.0,-999.0,92,-99.99,,,0.00,Acu-Link.com,2013-05-10 09:19:00,
2013-05-10 02:34:00,49.5,47.3,30.04,WSW,247,1.1,-999.0,92,-99.99,,,0.00,Acu-Link.com,2013-05-10 09:34:00,
2013-05-10 02:49:00,49.8,47.9,30.04,South,180,0.0,-999.0,93,-99.99,,,0.00,Acu-Link.com,2013-05-10 09:49:00,
2013-05-10 03:04:00,49.8,47.6,30.04,SSW,202,1.1,-999.0,92,-99.99,,,0.00,Acu-Link.com,2013-05-10 10:04:00,
2013-05-10 03:20:00,50.0,47.8,30.03,NNE,22,0.0,-999.0,92,-99.99,,,0.00,Acu-Link.com,2013-05-10 10:20:00,
2013-05-10 03:35:00,50.0,47.8,30.03,SSW,202,0.0,-999.0,92,-99.99,,,0.00,Acu-Link.com,2013-05-10 10:35:00,
2013-05-10 03:50:00,50.2,47.7,30.03,SSW,202,2.7,-999.0,91,-99.99,,,0.00,Acu-Link.com,2013-05-10 10:50:00,
2013-05-10 04:05:00,50.0,47.5,30.02,SSE,157,0.0,-999.0,91,-99.99,,,0.00,Acu-Link.com,2013-05-10 11:05:00,
2013-05-10 04:21:00,50.4,47.9,30.03,SW,225,0.0,-999.0,91,-99.99,,,0.00,Acu-Link.com,2013-05-10 11:21:00,
2013-05-10 04:36:00,50.2,47.7,30.02,SSW,202,1.1,-999.0,91,-99.99,,,0.00,Acu-Link.com,2013-05-10 11:36:00,
2013-05-10 04:51:00,50.4,47.9,30.02,South,180,0.0,-999.0,91,-99.99,,,0.00,Acu-Link.com,2013-05-10 11:51:00,
2013-05-10 05:06:00,50.4,47.6,30.02,NNE,22,1.7,-999.0,90,-99.99,,,0.00,Acu-Link.com,2013-05-10 12:06:00,
2013-05-10 05:22:00,50.7,48.2,30.01,WSW,247,0.0,-999.0,91,-99.99,,,0.00,Acu-Link.com,2013-05-10 12:22:00,
2013-05-10 05:37:00,50.5,47.7,30.02,NNE,22,0.0,-999.0,90,-99.99,,,0.00,Acu-Link.com,2013-05-10 12:37:00,
2013-05-10 05:52:00,50.5,47.7,30.01,NNE,22,0.0,-999.0,90,-99.99,,,0.00,Acu-Link.com,2013-05-10 12:52:00,
2013-05-10 06:07:00,50.7,47.9,30.02,ESE,112,1.1,-999.0,90,-99.99,,,0.00,Acu-Link.com,2013-05-10 13:07:00,
2013-05-10 06:22:00,50.9,48.1,30.03,NNE,22,0.0,-999.0,90,-99.99,,,0.00,Acu-Link.com,2013-05-10 13:22:00,
2013-05-10 06:38:00,51.3,48.2,30.03,NNE,22,0.0,-999.0,89,-99.99,,,0.00,Acu-Link.com,2013-05-10 13:38:00,
2013-05-10 06:53:00,51.6,48.5,30.04,South,180,0.0,-999.0,89,-99.99,,,0.00,Acu-Link.com,2013-05-10 13:53:00,
2013-05-10 07:08:00,52.0,48.6,30.04,WSW,247,1.7,-999.0,88,-99.99,,,0.00,Acu-Link.com,2013-05-10 14:08:00,
2013-05-10 07:23:00,52.5,48.7,30.05,East,90,1.7,-999.0,87,-99.99,,,0.00,Acu-Link.com,2013-05-10 14:23:00,
2013-05-10 07:38:00,53.1,48.7,30.07,North,0,0.0,-999.0,85,-99.99,,,0.00,Acu-Link.com,2013-05-10 14:38:00,
2013-05-10 07:54:00,53.6,48.9,30.05,SE,135,0.0,-999.0,84,-99.99,,,0.00,Acu-Link.com,2013-05-10 14:54:00,
2013-05-10 08:09:00,54.9,49.5,30.06,NW,315,2.2,-999.0,82,-99.99,,,0.00,Acu-Link.com,2013-05-10 15:09:00,
2013-05-10 08:24:00,55.6,49.5,30.06,North,0,0.0,-999.0,80,-99.99,,,0.00,Acu-Link.com,2013-05-10 15:24:00,
2013-05-10 08:40:00,56.3,49.5,30.05,ESE,112,1.7,-999.0,78,-99.99,,,0.00,Acu-Link.com,2013-05-10 15:40:00,
2013-05-10 08:55:00,55.2,49.5,30.05,WNW,292,2.7,-999.0,81,-99.99,,,0.00,Acu-Link.com,2013-05-10 15:55:00,
2013-05-10 09:10:00,56.1,49.3,30.05,SE,135,2.2,-999.0,78,-99.99,,,0.00,Acu-Link.com,2013-05-10 16:10:00,
2013-05-10 09:25:00,59.7,50.7,30.05,SSE,157,1.7,-999.0,72,-99.99,,,0.00,Acu-Link.com,2013-05-10 16:25:00,
2013-05-10 09:40:00,61.2,50.9,30.05,East,90,1.1,-999.0,69,-99.99,,,0.00,Acu-Link.com,2013-05-10 16:40:00,
2013-05-10 09:56:00,62.8,52.1,30.05,West,270,3.2,-999.0,68,-99.99,,,0.00,Acu-Link.com,2013-05-10 16:56:00,
2013-05-10 10:11:00,64.6,52.1,30.05,East,90,3.7,-999.0,64,-99.99,,,0.00,Acu-Link.com,2013-05-10 17:11:00,
2013-05-10 10:26:00,65.8,52.4,30.05,North,0,3.2,-999.0,62,-99.99,,,0.00,Acu-Link.com,2013-05-10 17:26:00,
2013-05-10 10:41:00,66.9,53.0,30.06,ESE,112,4.2,-999.0,61,-99.99,,,0.00,Acu-Link.com,2013-05-10 17:41:00,
2013-05-10 10:56:00,67.6,52.8,30.05,West,270,2.7,-999.0,59,-99.99,,,0.00,Acu-Link.com,2013-05-10 17:56:00,
2013-05-10 11:12:00,68.2,53.8,30.06,NE,45,5.3,-999.0,60,-99.99,,,0.00,Acu-Link.com,2013-05-10 18:12:00,
2013-05-10 11:27:00,66.7,53.7,30.06,SE,135,6.8,-999.0,63,-99.99,,,0.00,Acu-Link.com,2013-05-10 18:27:00,
2013-05-10 11:42:00,67.5,54.5,30.06,NE,45,3.7,-999.0,63,-99.99,,,0.00,Acu-Link.com,2013-05-10 18:42:00,
2013-05-10 11:57:00,66.7,54.1,30.05,ESE,112,2.2,-999.0,64,-99.99,,,0.00,Acu-Link.com,2013-05-10 18:57:00,
2013-05-10 12:12:00,68.2,54.7,30.04,SSE,157,4.2,-999.0,62,-99.99,,,0.00,Acu-Link.com,2013-05-10 19:12:00,
2013-05-10 12:28:00,67.5,54.5,30.04,ENE,67,5.8,-999.0,63,-99.99,,,0.00,Acu-Link.com,2013-05-10 19:28:00,
2013-05-10 12:43:00,70.5,55.5,30.04,NNE,22,3.2,-999.0,59,-99.99,,,0.00,Acu-Link.com,2013-05-10 19:43:00,
2013-05-10 12:58:00,70.9,55.4,30.04,WNW,292,3.7,-999.0,58,-99.99,,,0.00,Acu-Link.com,2013-05-10 19:58:00,
2013-05-10 13:13:00,69.8,55.3,30.03,SW,225,3.2,-999.0,60,-99.99,,,0.00,Acu-Link.com,2013-05-10 20:13:00,
2013-05-10 13:29:00,70.0,55.0,30.02,ENE,67,5.8,-999.0,59,-99.99,,,0.00,Acu-Link.com,2013-05-10 20:29:00,
2013-05-10 13:44:00,71.2,55.2,30.03,ESE,112,3.2,-999.0,57,-99.99,,,0.00,Acu-Link.com,2013-05-10 20:44:00,
2013-05-10 13:59:00,71.4,55.4,30.01,SSW,202,3.7,-999.0,57,-99.99,,,0.00,Acu-Link.com,2013-05-10 20:59:00,
2013-05-10 14:14:00,72.7,56.6,30.01,NNE,22,4.7,-999.0,57,-99.99,,,0.00,Acu-Link.com,2013-05-10 21:14:00,
2013-05-10 14:29:00,74.7,57.4,30.01,WNW,292,2.2,-999.0,55,-99.99,,,0.00,Acu-Link.com,2013-05-10 21:29:00,
2013-05-10 14:45:00,73.6,55.9,30.01,SSW,202,2.7,-999.0,54,-99.99,,,0.00,Acu-Link.com,2013-05-10 21:45:00,
2013-05-10 15:00:00,75.6,57.2,30.02,WSW,247,2.7,-999.0,53,-99.99,,,0.00,Acu-Link.com,2013-05-10 22:00:00,
2013-05-10 15:15:00,76.3,57.4,30.01,NW,315,3.7,-999.0,52,-99.99,,,0.00,Acu-Link.com,2013-05-10 22:15:00,
2013-05-10 15:30:00,75.2,55.8,29.99,NW,315,4.2,-999.0,51,-99.99,,,0.00,Acu-Link.com,2013-05-10 22:30:00,
2013-05-10 15:45:00,73.2,55.5,30.00,NE,45,3.2,-999.0,54,-99.99,,,0.00,Acu-Link.com,2013-05-10 22:45:00,
2013-05-10 16:01:00,72.7,55.6,29.99,SSW,202,2.2,-999.0,55,-99.99,,,0.00,Acu-Link.com,2013-05-10 23:01:00,
2013-05-10 16:16:00,73.0,54.8,29.99,North,0,4.2,-999.0,53,-99.99,,,0.00,Acu-Link.com,2013-05-10 23:16:00,
2013-05-10 16:31:00,72.7,55.6,29.97,West,270,1.1,-999.0,55,-99.99,,,0.00,Acu-Link.com,2013-05-10 23:31:00,
2013-05-10 16:46:00,71.8,54.2,29.97,North,0,1.7,-999.0,54,-99.99,,,0.00,Acu-Link.com,2013-05-10 23:46:00,
2013-05-10 17:01:00,71.2,54.2,29.98,SE,135,2.2,-999.0,55,-99.99,,,0.00,Acu-Link.com,2013-05-11 00:01:00,
2013-05-10 17:17:00,70.9,54.4,29.97,SW,225,3.2,-999.0,56,-99.99,,,0.00,Acu-Link.com,2013-05-11 00:17:00,
2013-05-10 17:32:00,71.2,54.2,29.97,SSE,157,2.2,-999.0,55,-99.99,,,0.00,Acu-Link.com,2013-05-11 00:32:00,
2013-05-10 17:47:00,70.7,54.2,29.97,North,0,2.7,-999.0,56,-99.99,,,0.00,Acu-Link.com,2013-05-11 00:47:00,
2013-05-10 18:02:00,70.3,53.9,29.99,ENE,67,2.7,-999.0,56,-99.99,,,0.00,Acu-Link.com,2013-05-11 01:02:00,
2013-05-10 18:18:00,71.6,54.6,29.97,ESE,112,2.2,-999.0,55,-99.99,,,0.00,Acu-Link.com,2013-05-11 01:18:00,
2013-05-10 18:33:00,67.8,52.9,29.98,SW,225,3.7,-999.0,59,-99.99,,,0.00,Acu-Link.com,2013-05-11 01:33:00,
2013-05-10 18:48:00,64.9,52.0,29.97,WSW,247,2.2,-999.0,63,-99.99,,,0.00,Acu-Link.com,2013-05-11 01:48:00,
2013-05-10 19:03:00,63.3,51.3,29.98,SE,135,1.7,-999.0,65,-99.99,,,0.00,Acu-Link.com,2013-05-11 02:03:00,
2013-05-10 19:18:00,62.4,50.9,30.00,SW,225,3.7,-999.0,66,-99.99,,,0.00,Acu-Link.com,2013-05-11 02:18:00,
2013-05-10 19:34:00,61.7,50.6,29.99,South,180,4.7,-999.0,67,-99.99,,,0.00,Acu-Link.com,2013-05-11 02:34:00,
2013-05-10 19:49:00,60.4,49.8,30.00,WNW,292,2.7,-999.0,68,-99.99,,,0.00,Acu-Link.com,2013-05-11 02:49:00,
2013-05-10 20:04:00,59.2,49.8,30.01,SW,225,2.7,-999.0,71,-99.99,,,0.00,Acu-Link.com,2013-05-11 03:04:00,
2013-05-10 20:19:00,57.7,48.7,30.00,WSW,247,5.3,-999.0,72,-99.99,,,0.00,Acu-Link.com,2013-05-11 03:19:00,
2013-05-10 20:34:00,57.0,48.4,30.02,SSW,202,0.0,-999.0,73,-99.99,,,0.00,Acu-Link.com,2013-05-11 03:34:00,
2013-05-10 20:50:00,56.7,48.5,30.00,NNE,22,0.0,-999.0,74,-99.99,,,0.00,Acu-Link.com,2013-05-11 03:50:00,
2013-05-10 21:05:00,56.5,49.0,30.00,South,180,2.7,-999.0,76,-99.99,,,0.00,Acu-Link.com,2013-05-11 04:05:00,
2013-05-10 21:20:00,56.1,49.0,30.01,ENE,67,3.2,-999.0,77,-99.99,,,0.00,Acu-Link.com,2013-05-11 04:20:00,
2013-05-10 21:35:00,55.6,48.8,30.01,ESE,112,3.2,-999.0,78,-99.99,,,0.00,Acu-Link.com,2013-05-11 04:35:00,
2013-05-10 21:50:00,54.9,48.5,30.01,NE,45,0.0,-999.0,79,-99.99,,,0.00,Acu-Link.com,2013-05-11 04:50:00,
2013-05-10 22:06:00,54.5,48.5,30.01,South,180,0.0,-999.0,80,-99.99,,,0.00,Acu-Link.com,2013-05-11 05:06:00,
2013-05-10 22:21:00,53.8,48.4,30.02,ENE,67,2.2,-999.0,82,-99.99,,,0.00,Acu-Link.com,2013-05-11 05:21:00,
2013-05-10 22:36:00,53.4,48.4,30.00,ESE,112,1.7,-999.0,83,-99.99,,,0.00,Acu-Link.com,2013-05-11 05:36:00,
2013-05-10 22:51:00,52.9,47.9,30.01,South,180,2.2,-999.0,83,-99.99,,,0.00,Acu-Link.com,2013-05-11 05:51:00,
2013-05-10 23:06:00,52.9,48.2,30.01,WSW,247,0.0,-999.0,84,-99.99,,,0.00,Acu-Link.com,2013-05-11 06:06:00,
2013-05-10 23:22:00,52.7,48.3,30.01,South,180,0.0,-999.0,85,-99.99,,,0.00,Acu-Link.com,2013-05-11 06:22:00,
2013-05-10 23:37:00,52.5,48.4,30.02,SW,225,0.0,-999.0,86,-99.99,,,0.00,Acu-Link.com,2013-05-11 06:37:00,
2013-05-10 23:52:00,52.5,48.4,30.02,South,180,0.0,-999.0,86,-99.99,,,0.00,Acu-Link.com,2013-05-11 06:52:00,